Time;durP1;ratioP1;P1;durP2;ratioP2;P2;SDS_P1;SDS_P2;PMS_P1;PMS_P2;Temp;Humidity;BMP_temperature;BMP_pressure;BME280_temperature;BME280_humidity;BME280_pressure;Samples;Min_cycle;Max_cycle;Signal;HPM_P1;HPM_P2
2023/06/30 00:02:08;;;;;;;12.40;5.68;;;17.10;99.90;;;;;;5024493;28;20173;-74
2023/06/30 00:04:35;;;;;;;11.70;5.80;;;17.10;99.90;;;;;;5024565;28;20026;-72
2023/06/30 00:07:01;;;;;;;10.63;5.43;;;17.00;99.90;;;;;;5025649;28;20026;-72
2023/06/30 00:09:28;;;;;;;13.43;5.63;;;17.00;99.90;;;;;;5024656;28;20026;-70
2023/06/30 00:11:54;;;;;;;9.10;5.15;;;17.00;99.90;;;;;;5025062;28;20033;-71
2023/06/30 00:14:21;;;;;;;12.45;6.22;;;17.00;99.90;;;;;;5024459;28;20036;-74
2023/06/30 00:16:49;;;;;;;16.00;6.68;;;17.00;99.90;;;;;;5025390;28;20030;-74
2023/06/30 00:19:15;;;;;;;18.02;6.95;;;17.00;99.90;;;;;;5026491;28;20022;-72
2023/06/30 00:21:41;;;;;;;14.57;9.05;;;17.00;99.90;;;;;;5024007;28;20026;-72
2023/06/30 00:24:12;;;;;;;29.27;15.50;;;17.00;99.90;;;;;;5025495;28;20081;-74
2023/06/30 00:26:38;;;;;;;26.95;18.33;;;16.90;99.90;;;;;;5025591;28;20033;-72
2023/06/30 00:29:04;;;;;;;36.25;22.80;;;17.00;99.90;;;;;;5025147;28;20036;-71
2023/06/30 00:31:29;;;;;;;38.97;24.67;;;17.00;99.90;;;;;;5025288;28;20030;-73
2023/06/30 00:33:55;;;;;;;40.05;25.15;;;16.90;99.90;;;;;;5025007;28;20033;-72
2023/06/30 00:36:21;;;;;;;41.63;26.83;;;16.90;99.90;;;;;;5024976;28;20426;-72
2023/06/30 00:38:47;;;;;;;42.78;25.70;;;16.90;99.90;;;;;;5025119;28;20054;-72
2023/06/30 00:41:12;;;;;;;38.72;24.75;;;16.90;99.90;;;;;;5023803;28;20042;-70
2023/06/30 00:43:38;;;;;;;45.00;26.67;;;16.90;99.90;;;;;;5024819;28;20034;-71
2023/06/30 00:46:05;;;;;;;43.20;27.50;;;16.90;99.90;;;;;;5025225;28;20038;-70
2023/06/30 00:48:31;;;;;;;38.30;24.00;;;16.90;99.90;;;;;;5023809;28;20068;-72
2023/06/30 00:50:57;;;;;;;42.10;23.60;;;16.90;99.90;;;;;;5024908;28;20536;-71
2023/06/30 00:53:24;;;;;;;39.83;23.50;;;16.90;99.90;;;;;;5024939;28;20037;-72
2023/06/30 00:55:50;;;;;;;36.50;23.67;;;16.90;99.90;;;;;;5024608;28;20030;-71
2023/06/30 00:58:16;;;;;;;43.55;23.25;;;16.80;99.90;;;;;;5024565;28;20041;-70
2023/06/30 01:00:41;;;;;;;38.95;23.70;;;16.80;99.90;;;;;;5023528;28;20045;-71
2023/06/30 01:03:07;;;;;;;32.03;21.58;;;16.80;99.90;;;;;;5024855;28;20034;-72
2023/06/30 01:05:54;;;;;;;40.00;23.83;;;16.80;99.90;;;;;;5022796;28;20076;-73
2023/06/30 01:08:42;;;;;;;33.83;22.25;;;16.80;99.90;;;;;;5024816;28;20034;-73
2023/06/30 01:11:09;;;;;;;33.72;22.73;;;16.80;99.90;;;;;;5024692;28;20112;-72
2023/06/30 01:13:35;;;;;;;34.83;20.95;;;16.70;99.90;;;;;;5025010;28;20045;-71
2023/06/30 01:16:04;;;;;;;29.98;18.20;;;16.70;99.90;;;;;;5024829;28;20026;-71
2023/06/30 01:18:32;;;;;;;35.83;20.02;;;16.70;99.90;;;;;;5023004;28;20096;-72
2023/06/30 01:20:59;;;;;;;33.00;18.17;;;16.60;99.90;;;;;;5024519;28;20033;-72
2023/06/30 01:23:33;;;;;;;30.85;18.88;;;16.70;99.90;;;;;;5023090;28;20022;-74
2023/06/30 01:26:00;;;;;;;21.63;14.32;;;16.70;99.90;;;;;;5023019;28;20453;-72
2023/06/30 01:28:33;;;;;;;27.65;15.93;;;16.70;99.90;;;;;;5023244;28;20045;-72
2023/06/30 01:30:59;;;;;;;28.15;14.93;;;16.60;99.90;;;;;;5024488;28;20026;-72
2023/06/30 01:33:26;;;;;;;25.88;15.43;;;16.60;99.90;;;;;;5024098;28;20111;-71
2023/06/30 01:35:52;;;;;;;23.05;14.80;;;16.60;99.90;;;;;;5024416;28;20018;-71
2023/06/30 01:38:17;;;;;;;27.73;15.55;;;16.70;99.90;;;;;;5006506;28;20034;-72
2023/06/30 01:40:45;;;;;;;28.02;15.38;;;16.70;99.90;;;;;;5024196;28;20037;-73
2023/06/30 01:43:11;;;;;;;25.08;14.93;;;16.70;99.90;;;;;;5023223;28;20029;-72
2023/06/30 01:45:38;;;;;;;22.73;14.32;;;16.60;99.90;;;;;;5023006;28;20045;-73
2023/06/30 01:48:04;;;;;;;26.30;14.75;;;16.60;99.90;;;;;;5024283;28;20041;-73
2023/06/30 01:50:31;;;;;;;29.67;15.07;;;16.60;99.90;;;;;;5024287;28;20032;-72
2023/06/30 01:52:58;;;;;;;22.02;13.10;;;16.60;99.90;;;;;;5022837;28;20026;-75
2023/06/30 01:55:23;;;;;;;23.75;12.30;;;16.60;99.90;;;;;;5022903;28;20030;-72
2023/06/30 01:57:49;;;;;;;23.95;12.82;;;16.60;99.90;;;;;;5024262;28;20107;-71
2023/06/30 02:00:15;;;;;;;21.33;12.65;;;16.60;99.90;;;;;;5024026;28;20085;-71
2023/06/30 02:02:41;;;;;;;24.35;13.07;;;16.50;99.90;;;;;;5024386;28;20131;-73
2023/06/30 02:05:08;;;;;;;17.95;11.50;;;16.50;99.90;;;;;;5023083;28;20046;-73
2023/06/30 02:07:33;;;;;;;22.98;12.00;;;16.50;99.90;;;;;;5024230;28;20030;-72
2023/06/30 02:09:59;;;;;;;20.23;10.65;;;16.50;99.90;;;;;;5024257;28;20143;-72
2023/06/30 02:12:24;;;;;;;17.55;10.65;;;16.50;99.90;;;;;;5022961;28;20026;-72
2023/06/30 02:14:50;;;;;;;18.70;9.60;;;16.50;99.90;;;;;;5023895;28;20037;-72
2023/06/30 02:17:15;;;;;;;20.05;10.52;;;16.50;99.90;;;;;;5027349;28;20061;-73
2023/06/30 02:19:41;;;;;;;20.63;9.93;;;16.50;99.90;;;;;;5027535;28;20088;-73
2023/06/30 02:22:07;;;;;;;19.35;9.52;;;16.50;99.90;;;;;;5027507;28;20053;-72
2023/06/30 02:24:33;;;;;;;16.95;9.45;;;16.50;99.90;;;;;;5026385;28;20067;-73
2023/06/30 02:26:59;;;;;;;19.58;9.75;;;16.50;99.90;;;;;;5027504;28;20144;-73
2023/06/30 02:29:25;;;;;;;14.63;9.32;;;16.40;99.90;;;;;;5025988;28;20064;-74
2023/06/30 02:31:50;;;;;;;17.70;8.82;;;16.50;99.90;;;;;;5027647;28;20053;-73
2023/06/30 02:34:16;;;;;;;18.15;9.18;;;16.50;99.90;;;;;;5027001;28;20034;-72
2023/06/30 02:36:41;;;;;;;17.80;8.40;;;16.50;99.90;;;;;;5027364;28;20044;-72
2023/06/30 02:39:07;;;;;;;21.77;9.45;;;16.40;99.90;;;;;;5027432;28;20412;-72
2023/06/30 02:41:33;;;;;;;18.90;9.13;;;16.40;99.90;;;;;;5026118;28;20026;-72
2023/06/30 02:43:58;;;;;;;15.27;8.52;;;16.30;99.90;;;;;;5025962;28;20026;-74
2023/06/30 02:46:24;;;;;;;17.73;8.52;;;16.40;99.90;;;;;;5027164;28;20044;-74
2023/06/30 02:48:49;;;;;;;17.10;9.40;;;16.40;99.90;;;;;;5026818;28;20065;-74
2023/06/30 02:51:15;;;;;;;20.67;8.60;;;16.30;99.90;;;;;;5027129;28;20041;-72
2023/06/30 02:53:40;;;;;;;20.48;9.40;;;16.30;99.90;;;;;;5027435;28;20029;-73
2023/06/30 02:56:06;;;;;;;16.50;8.90;;;16.40;99.90;;;;;;5026953;28;20029;-71
2023/06/30 02:58:36;;;;;;;19.40;9.25;;;16.30;99.90;;;;;;5025684;28;20022;-73
2023/06/30 03:01:02;;;;;;;20.75;9.25;;;16.30;99.90;;;;;;5025731;28;20022;-72
2023/06/30 03:03:27;;;;;;;29.35;9.63;;;16.30;99.90;;;;;;5026821;28;20037;-72
2023/06/30 03:05:53;;;;;;;20.83;9.20;;;16.30;99.90;;;;;;5026477;28;20045;-73
2023/06/30 03:08:19;;;;;;;19.10;9.85;;;16.30;99.90;;;;;;5026898;28;20064;-72
2023/06/30 03:10:44;;;;;;;15.40;7.90;;;16.20;99.90;;;;;;5026647;28;20391;-72
2023/06/30 03:13:10;;;;;;;17.20;9.10;;;16.30;99.90;;;;;;5025413;28;20032;-73
2023/06/30 03:15:35;;;;;;;16.25;8.18;;;16.30;99.90;;;;;;5025589;28;20483;-74
2023/06/30 03:18:01;;;;;;;16.08;8.88;;;16.30;99.90;;;;;;5025116;28;20037;-74
2023/06/30 03:20:26;;;;;;;17.50;8.77;;;16.30;99.90;;;;;;5026452;28;20437;-73
2023/06/30 03:22:53;;;;;;;16.77;9.43;;;16.30;99.90;;;;;;5025362;28;20026;-73
2023/06/30 03:25:19;;;;;;;18.52;9.27;;;16.30;99.90;;;;;;5024648;28;20077;-71
2023/06/30 03:27:44;;;;;;;18.83;9.13;;;16.20;99.90;;;;;;5024462;28;20034;-72
2023/06/30 03:30:10;;;;;;;15.73;9.65;;;16.20;99.90;;;;;;5025055;28;20026;-72
2023/06/30 03:32:36;;;;;;;18.40;9.18;;;16.20;99.90;;;;;;5026274;28;20026;-74
2023/06/30 03:35:02;;;;;;;21.88;9.75;;;16.20;99.90;;;;;;5025192;28;20022;-75
2023/06/30 03:37:30;;;;;;;16.33;10.15;;;16.20;99.90;;;;;;5026225;28;20053;-74
2023/06/30 03:39:55;;;;;;;19.63;10.20;;;16.20;99.90;;;;;;5025559;28;20085;-75
2023/06/30 03:42:21;;;;;;;16.23;8.68;;;16.20;99.90;;;;;;5024928;28;20036;-75
2023/06/30 03:44:46;;;;;;;20.70;9.82;;;16.10;99.90;;;;;;5024411;28;20042;-74
2023/06/30 03:47:12;;;;;;;20.92;10.23;;;16.20;99.90;;;;;;5025819;28;20033;-73
2023/06/30 03:49:38;;;;;;;18.85;10.43;;;16.10;99.90;;;;;;5026432;28;20100;-73
2023/06/30 03:52:04;;;;;;;19.08;9.20;;;16.20;99.90;;;;;;5026133;28;20041;-73
2023/06/30 03:54:29;;;;;;;23.63;10.07;;;16.20;99.90;;;;;;5027089;28;20032;-74
2023/06/30 03:56:57;;;;;;;15.88;9.93;;;16.10;99.90;;;;;;5045821;28;20104;-73
2023/06/30 03:59:23;;;;;;;18.85;9.70;;;16.10;99.90;;;;;;5045604;28;20017;-73
2023/06/30 04:01:48;;;;;;;17.83;10.70;;;16.20;99.90;;;;;;5027602;28;20505;-72
2023/06/30 04:04:14;;;;;;;20.80;10.07;;;16.20;99.90;;;;;;5045785;28;20025;-73
2023/06/30 04:06:40;;;;;;;15.77;9.98;;;16.20;99.90;;;;;;5045523;28;20128;-73
2023/06/30 04:09:05;;;;;;;18.45;11.00;;;16.20;99.90;;;;;;5027733;28;20029;-71
2023/06/30 04:11:31;;;;;;;21.15;11.38;;;16.20;99.90;;;;;;5045651;28;20041;-72
2023/06/30 04:13:59;;;;;;;20.63;10.82;;;16.20;99.90;;;;;;5045290;28;20029;-72
2023/06/30 04:16:24;;;;;;;25.42;10.63;;;16.20;99.90;;;;;;5027347;28;20032;-72
2023/06/30 04:18:50;;;;;;;20.52;11.27;;;16.20;99.90;;;;;;5045394;28;20021;-73
2023/06/30 04:21:17;;;;;;;21.58;11.57;;;16.10;99.90;;;;;;5045204;28;20026;-73
2023/06/30 04:23:42;;;;;;;20.13;10.30;;;16.10;99.90;;;;;;5027562;28;20025;-72
2023/06/30 04:26:08;;;;;;;18.33;10.40;;;16.20;99.90;;;;;;5044026;28;20399;-71
2023/06/30 04:28:33;;;;;;;20.67;10.13;;;16.20;99.90;;;;;;5034435;28;20021;-72
2023/06/30 04:30:59;;;;;;;20.65;11.13;;;16.20;99.90;;;;;;5045068;28;20029;-73
2023/06/30 04:33:25;;;;;;;23.85;11.35;;;16.20;99.90;;;;;;5045180;28;20032;-72
2023/06/30 04:35:50;;;;;;;21.08;11.25;;;16.30;99.90;;;;;;5026859;28;20029;-73
2023/06/30 04:38:19;;;;;;;23.40;10.65;;;16.20;99.90;;;;;;5027001;28;20553;-73
2023/06/30 04:40:46;;;;;;;19.65;11.63;;;16.20;99.90;;;;;;5027286;28;20029;-73
2023/06/30 04:43:12;;;;;;;21.73;10.82;;;16.20;99.90;;;;;;5026712;28;20033;-73
2023/06/30 04:45:39;;;;;;;27.20;11.05;;;16.30;99.90;;;;;;5027260;28;20041;-72
2023/06/30 04:48:06;;;;;;;22.38;11.35;;;16.20;99.90;;;;;;5045114;28;20040;-71
2023/06/30 04:50:31;;;;;;;19.67;10.82;;;16.30;99.90;;;;;;5044862;28;20044;-71
2023/06/30 04:52:57;;;;;;;23.95;11.88;;;16.30;99.90;;;;;;5044859;28;20398;-71
2023/06/30 04:55:22;;;;;;;16.33;10.57;;;16.20;99.90;;;;;;5044580;28;20101;-71
2023/06/30 04:57:48;;;;;;;18.77;11.07;;;16.30;99.90;;;;;;5026482;28;20029;-71
2023/06/30 05:00:14;;;;;;;19.50;10.93;;;16.30;99.90;;;;;;5044823;28;20022;-71
2023/06/30 05:02:39;;;;;;;22.65;11.02;;;16.40;99.90;;;;;;5044852;28;20064;-71
2023/06/30 05:05:05;;;;;;;27.73;11.65;;;16.30;99.90;;;;;;5044403;28;20037;-70
2023/06/30 05:07:31;;;;;;;20.08;10.68;;;16.40;99.90;;;;;;5044694;28;20030;-70
2023/06/30 05:09:57;;;;;;;21.42;11.68;;;16.40;99.90;;;;;;5044447;28;20040;-70
2023/06/30 05:12:22;;;;;;;21.55;11.50;;;16.40;99.90;;;;;;5044141;28;20025;-70
2023/06/30 05:14:49;;;;;;;17.15;11.07;;;16.40;99.90;;;;;;5044323;28;20032;-71
2023/06/30 05:17:14;;;;;;;19.75;10.00;;;16.40;99.90;;;;;;5044237;28;20026;-69
2023/06/30 05:19:41;;;;;;;21.85;10.30;;;16.40;99.90;;;;;;5044370;28;20044;-70
2023/06/30 05:22:07;;;;;;;18.83;10.52;;;16.40;99.90;;;;;;5044652;28;20025;-72
2023/06/30 05:24:33;;;;;;;19.00;11.43;;;16.40;99.90;;;;;;5026718;28;20040;-70
2023/06/30 05:26:59;;;;;;;21.58;9.98;;;16.40;99.90;;;;;;5044051;28;20030;-70
2023/06/30 05:29:28;;;;;;;18.23;10.63;;;16.50;99.90;;;;;;5026618;28;20029;-71
2023/06/30 05:31:53;;;;;;;16.63;8.57;;;16.50;99.90;;;;;;5026293;28;20026;-72
2023/06/30 05:34:19;;;;;;;23.58;10.95;;;16.50;99.90;;;;;;5026308;28;20552;-73
2023/06/30 05:36:44;;;;;;;17.73;11.20;;;16.50;99.90;;;;;;5026446;28;20029;-74
2023/06/30 05:39:11;;;;;;;21.00;10.82;;;16.40;99.90;;;;;;5025968;28;20401;-73
2023/06/30 05:41:36;;;;;;;17.20;11.43;;;16.40;99.90;;;;;;5026439;28;20033;-73
2023/06/30 05:44:02;;;;;;;19.80;11.32;;;16.50;99.90;;;;;;5044212;28;20033;-73
2023/06/30 05:46:27;;;;;;;17.95;10.65;;;16.50;99.90;;;;;;5043751;28;20036;-72
2023/06/30 05:48:53;;;;;;;20.27;11.38;;;16.40;99.90;;;;;;5044139;28;20057;-72
2023/06/30 05:51:18;;;;;;;17.55;9.98;;;16.40;99.90;;;;;;5046362;28;20026;-72
2023/06/30 05:53:44;;;;;;;24.35;11.63;;;16.60;99.90;;;;;;5047941;28;20044;-72
2023/06/30 05:56:09;;;;;;;20.88;11.98;;;16.60;99.90;;;;;;5047990;28;20032;-73
2023/06/30 05:58:37;;;;;;;21.98;11.40;;;16.60;99.90;;;;;;5048347;28;20037;-73
2023/06/30 06:01:03;;;;;;;25.15;11.60;;;16.60;99.90;;;;;;5030075;28;20026;-74
2023/06/30 06:03:30;;;;;;;21.67;11.50;;;16.70;99.90;;;;;;5047984;28;20128;-72
2023/06/30 06:05:57;;;;;;;21.77;11.20;;;16.70;99.90;;;;;;5047643;28;20060;-72
2023/06/30 06:08:23;;;;;;;20.33;10.07;;;16.80;99.90;;;;;;5047572;28;20036;-73
2023/06/30 06:10:48;;;;;;;16.65;9.40;;;16.80;99.90;;;;;;5047736;28;20112;-72
2023/06/30 06:13:37;;;;;;;22.65;9.30;;;16.90;99.90;;;;;;5029872;28;20030;-73
2023/06/30 06:16:04;;;;;;;18.40;8.75;;;16.90;99.90;;;;;;5047617;28;20040;-73
2023/06/30 06:18:30;;;;;;;15.98;7.88;;;17.00;99.90;;;;;;5029946;28;20029;-71
2023/06/30 06:20:56;;;;;;;22.38;9.57;;;17.10;99.90;;;;;;5047316;28;20024;-72
2023/06/30 06:23:22;;;;;;;17.63;8.10;;;17.10;99.90;;;;;;5047529;28;20040;-72
2023/06/30 06:25:49;;;;;;;12.32;6.72;;;17.10;99.90;;;;;;5047356;28;20068;-72
2023/06/30 06:28:15;;;;;;;12.52;6.72;;;17.30;99.90;;;;;;5047073;28;20053;-74
2023/06/30 06:30:40;;;;;;;13.20;6.10;;;17.20;99.90;;;;;;5029676;28;20029;-70
2023/06/30 06:33:06;;;;;;;11.35;5.32;;;17.30;99.90;;;;;;5029710;28;20061;-73
2023/06/30 06:35:33;;;;;;;11.95;4.50;;;17.30;99.90;;;;;;5047019;28;20478;-73
2023/06/30 06:37:59;;;;;;;9.98;4.60;;;17.20;99.90;;;;;;5047539;28;20498;-72
2023/06/30 06:40:25;;;;;;;11.57;4.78;;;17.20;99.90;;;;;;5029306;28;20056;-72
2023/06/30 06:42:50;;;;;;;10.23;5.45;;;17.20;99.90;;;;;;5047015;28;20025;-72
2023/06/30 06:45:17;;;;;;;10.25;5.30;;;17.20;99.90;;;;;;5029215;28;20060;-73
2023/06/30 06:48:16;;;;;;;11.25;5.25;;;17.20;99.90;;;;;;5029523;28;20148;-73
2023/06/30 06:50:42;;;;;;;9.95;4.28;;;17.10;99.90;;;;;;5028920;28;20029;-73
2023/06/30 06:53:07;;;;;;;16.42;5.75;;;17.10;99.90;;;;;;5047328;28;20029;-73
2023/06/30 06:55:33;;;;;;;16.15;5.72;;;16.90;99.90;;;;;;5025182;28;20096;-71
2023/06/30 06:57:59;;;;;;;11.85;4.50;;;17.00;99.90;;;;;;5041100;28;20060;-72
2023/06/30 07:00:25;;;;;;;12.90;5.85;;;17.00;99.90;;;;;;5028095;28;20032;-71
2023/06/30 07:02:51;;;;;;;14.68;6.70;;;17.10;99.90;;;;;;5044727;28;20025;-74
2023/06/30 07:05:17;;;;;;;14.43;5.70;;;17.20;99.90;;;;;;5033899;28;20030;-72
2023/06/30 07:07:42;;;;;;;11.73;5.63;;;17.30;99.90;;;;;;5043843;28;20471;-72
2023/06/30 07:10:08;;;;;;;11.13;5.55;;;17.40;99.90;;;;;;5043820;28;20046;-70
2023/06/30 07:12:34;;;;;;;14.88;6.15;;;17.50;99.90;;;;;;5044114;28;20025;-72
2023/06/30 07:14:59;;;;;;;12.55;6.07;;;17.50;99.90;;;;;;5045907;28;20049;-72
2023/06/30 07:17:25;;;;;;;12.10;5.55;;;17.50;99.90;;;;;;5037639;28;20522;-73
2023/06/30 07:19:51;;;;;;;14.98;5.13;;;17.50;99.90;;;;;;5029234;28;20047;-70
2023/06/30 07:22:16;;;;;;;13.43;5.28;;;17.60;99.90;;;;;;5045417;28;20065;-73
2023/06/30 07:24:42;;;;;;;11.15;5.35;;;17.60;99.90;;;;;;5033888;28;20093;-72
2023/06/30 07:27:07;;;;;;;7.28;3.90;;;17.90;99.90;;;;;;5045787;28;20544;-73
2023/06/30 07:29:33;;;;;;;10.65;4.35;;;18.00;99.90;;;;;;5046365;28;20081;-74
2023/06/30 07:31:58;;;;;;;12.07;4.03;;;18.10;99.90;;;;;;5037340;28;20033;-71
2023/06/30 07:34:25;;;;;;;11.30;3.92;;;18.20;99.90;;;;;;5045912;28;20029;-72
2023/06/30 07:36:51;;;;;;;9.90;3.95;;;18.20;99.90;;;;;;5046242;28;20105;-72
2023/06/30 07:39:17;;;;;;;12.05;3.50;;;18.30;99.90;;;;;;5044252;28;20049;-73
2023/06/30 07:41:42;;;;;;;10.10;3.47;;;18.40;99.90;;;;;;5045556;28;20021;-73
2023/06/30 07:44:11;;;;;;;7.05;2.97;;;18.50;99.90;;;;;;5045448;28;20029;-74
2023/06/30 07:46:38;;;;;;;8.65;3.10;;;18.50;99.90;;;;;;5034742;28;20041;-76
2023/06/30 07:49:04;;;;;;;9.45;3.60;;;18.40;99.90;;;;;;5045583;28;20041;-73
2023/06/30 07:51:30;;;;;;;8.18;3.60;;;18.30;99.90;;;;;;5024752;28;20034;-75
2023/06/30 07:53:56;;;;;;;6.30;3.35;;;18.20;99.90;;;;;;5033266;28;20030;-73
2023/06/30 07:56:21;;;;;;;9.95;3.03;;;18.10;99.90;;;;;;5045757;28;20532;-72
2023/06/30 07:58:47;;;;;;;9.70;3.05;;;18.00;99.90;;;;;;5027679;28;20081;-72
2023/06/30 08:01:13;;;;;;;6.03;2.40;;;18.10;99.90;;;;;;5045402;28;20026;-75
2023/06/30 08:03:39;;;;;;;7.15;2.72;;;18.20;99.90;;;;;;5046027;28;20032;-73
2023/06/30 08:06:04;;;;;;;8.95;2.78;;;18.30;99.90;;;;;;5044069;28;20490;-72
2023/06/30 08:08:31;;;;;;;11.90;2.65;;;18.40;99.90;;;;;;5044751;28;20451;-74
2023/06/30 08:10:57;;;;;;;8.98;2.78;;;18.50;99.90;;;;;;5027176;28;20029;-73
2023/06/30 08:13:22;;;;;;;5.63;2.55;;;18.50;99.90;;;;;;5044057;28;20037;-73
2023/06/30 08:15:48;;;;;;;5.03;2.28;;;18.80;99.90;;;;;;5044531;28;20151;-73
2023/06/30 08:18:13;;;;;;;5.72;2.50;;;18.70;99.90;;;;;;5044671;28;20029;-74
2023/06/30 08:20:39;;;;;;;6.43;2.45;;;18.70;99.90;;;;;;5026728;28;20161;-75
2023/06/30 08:23:04;;;;;;;4.88;2.30;;;18.60;99.90;;;;;;5027146;28;20052;-72
2023/06/30 08:25:30;;;;;;;6.78;2.00;;;18.50;99.90;;;;;;5043649;28;20099;-73
2023/06/30 08:27:56;;;;;;;6.65;2.30;;;18.60;99.90;;;;;;5037770;28;20052;-73
2023/06/30 08:30:22;;;;;;;5.15;2.00;;;18.70;99.90;;;;;;5040507;28;20475;-71
2023/06/30 08:32:48;;;;;;;8.07;2.13;;;18.80;99.90;;;;;;5025814;28;20479;-72
2023/06/30 08:35:13;;;;;;;6.07;2.15;;;19.00;99.90;;;;;;5025991;28;20018;-71
2023/06/30 08:37:39;;;;;;;8.45;2.20;;;19.10;99.90;;;;;;5044792;28;20092;-73
2023/06/30 08:40:05;;;;;;;3.25;1.60;;;19.20;99.90;;;;;;5044820;28;20050;-72
2023/06/30 08:42:35;;;;;;;4.38;1.92;;;19.20;99.90;;;;;;5044624;28;20062;-72
2023/06/30 08:45:03;;;;;;;6.85;1.90;;;19.10;99.90;;;;;;5037984;28;20045;-72
2023/06/30 08:47:32;;;;;;;3.38;1.67;;;19.00;99.90;;;;;;5041149;28;20029;-72
2023/06/30 08:49:58;;;;;;;8.63;2.05;;;19.00;99.90;;;;;;5042959;28;20031;-73
2023/06/30 08:52:24;;;;;;;4.45;1.92;;;19.10;99.90;;;;;;5039122;28;20040;-70
2023/06/30 08:54:50;;;;;;;5.05;1.58;;;19.30;99.90;;;;;;5034819;28;20514;-73
2023/06/30 08:57:17;;;;;;;6.57;1.80;;;19.30;99.90;;;;;;5033959;28;20022;-72
2023/06/30 08:59:46;;;;;;;8.13;1.67;;;19.40;99.90;;;;;;5040169;28;20033;-71
2023/06/30 09:02:12;;;;;;;6.13;1.70;;;19.50;99.90;;;;;;5043537;28;20052;-71
2023/06/30 09:04:40;;;;;;;5.97;1.85;;;19.70;99.90;;;;;;5044589;28;20036;-73
2023/06/30 09:07:08;;;;;;;5.22;1.92;;;19.90;99.90;;;;;;5035812;28;20040;-72
2023/06/30 09:09:45;;;;;;;5.13;1.50;;;20.00;99.90;;;;;;5044024;28;20021;-73
2023/06/30 09:12:11;;;;;;;5.03;1.98;;;20.30;99.90;;;;;;5044457;28;20033;-72
2023/06/30 09:14:39;;;;;;;5.53;1.73;;;20.30;99.90;;;;;;5038944;28;20025;-74
2023/06/30 09:17:05;;;;;;;2.35;1.30;;;20.20;99.90;;;;;;5032858;28;20022;-73
2023/06/30 09:19:31;;;;;;;5.65;1.70;;;20.20;99.90;;;;;;5026485;28;20033;-72
2023/06/30 09:21:57;;;;;;;4.72;1.48;;;20.20;99.90;;;;;;5025980;28;20026;-71
2023/06/30 09:24:23;;;;;;;4.63;1.63;;;20.30;99.90;;;;;;5033244;28;20436;-73
2023/06/30 09:26:49;;;;;;;5.07;1.55;;;20.30;99.90;;;;;;5032799;28;20041;-70
2023/06/30 09:29:16;;;;;;;6.05;1.70;;;20.40;99.90;;;;;;5035960;28;20352;-74
2023/06/30 09:31:42;;;;;;;7.50;1.58;;;20.30;99.90;;;;;;5032671;28;20068;-72
2023/06/30 09:34:12;;;;;;;2.80;1.33;;;20.40;99.90;;;;;;5043595;28;20025;-73
2023/06/30 09:36:49;;;;;;;9.38;2.03;;;20.40;99.90;;;;;;5043679;28;20017;-75
2023/06/30 09:39:15;;;;;;;6.82;1.52;;;20.40;99.90;;;;;;5042530;28;20052;-72
2023/06/30 09:41:45;;;;;;;8.30;1.58;;;20.50;99.90;;;;;;5043206;28;20497;-74
2023/06/30 09:44:12;;;;;;;7.05;1.42;;;20.70;99.90;;;;;;5043344;28;20366;-72
2023/06/30 09:46:51;;;;;;;4.85;1.90;;;20.90;99.90;;;;;;5041303;28;20099;-73
2023/06/30 09:49:32;;;;;;;6.82;1.50;;;20.90;99.90;;;;;;5024240;28;20037;-72
2023/06/30 09:52:01;;;;;;;9.63;1.85;;;20.90;99.90;;;;;;5040672;28;20025;-71
2023/06/30 09:54:27;;;;;;;5.40;2.05;;;20.80;99.90;;;;;;5043583;28;20049;-72
2023/06/30 09:56:57;;;;;;;5.88;1.75;;;20.80;99.90;;;;;;5042612;28;20092;-73
2023/06/30 09:59:23;;;;;;;4.90;1.58;;;20.70;99.90;;;;;;5043772;28;20544;-73
2023/06/30 10:01:55;;;;;;;4.20;1.80;;;20.60;99.90;;;;;;5044001;28;20030;-73
2023/06/30 10:04:21;;;;;;;3.40;1.45;;;20.60;99.90;;;;;;5026305;28;20040;-71
2023/06/30 10:06:47;;;;;;;5.88;1.77;;;20.70;99.90;;;;;;5025712;28;20461;-73
2023/06/30 10:09:15;;;;;;;6.30;1.50;;;20.60;99.90;;;;;;5043919;28;20037;-72
2023/06/30 10:11:43;;;;;;;6.50;1.42;;;20.60;99.90;;;;;;5044018;28;20037;-73
2023/06/30 10:14:10;;;;;;;2.83;1.30;;;20.60;99.90;;;;;;5031857;28;20033;-72
2023/06/30 10:16:37;;;;;;;4.90;1.70;;;20.50;99.90;;;;;;5044083;28;20025;-72
2023/06/30 10:19:05;;;;;;;5.10;1.55;;;20.40;99.90;;;;;;5043804;28;20025;-72
2023/06/30 10:21:31;;;;;;;7.15;1.95;;;20.30;99.90;;;;;;5043606;28;20025;-72
2023/06/30 10:23:57;;;;;;;9.18;2.20;;;20.20;99.90;;;;;;5043749;28;20053;-72
2023/06/30 10:26:24;;;;;;;6.35;1.60;;;20.20;99.90;;;;;;5043677;28;20033;-73
2023/06/30 10:28:50;;;;;;;4.05;1.65;;;20.10;99.90;;;;;;5043397;28;20025;-72
2023/06/30 10:31:16;;;;;;;5.70;2.17;;;20.20;99.90;;;;;;5043186;28;20470;-73
2023/06/30 10:33:42;;;;;;;4.88;2.00;;;20.40;99.90;;;;;;5043561;28;20033;-72
2023/06/30 10:36:08;;;;;;;2.78;1.60;;;20.70;99.90;;;;;;5044047;28;20033;-73
2023/06/30 10:38:35;;;;;;;6.22;1.70;;;20.80;99.90;;;;;;5046588;28;20057;-73
2023/06/30 10:41:22;;;;;;;6.07;1.92;;;20.80;99.90;;;;;;5046880;28;20040;-72
2023/06/30 10:44:03;;;;;;;4.80;1.50;;;20.70;99.90;;;;;;5047092;28;20482;-72
2023/06/30 10:46:51;;;;;;;4.22;1.80;;;20.60;99.90;;;;;;5029236;28;20042;-72
2023/06/30 10:49:23;;;;;;;3.38;1.60;;;20.60;99.90;;;;;;5046804;28;20022;-73
2023/06/30 10:51:50;;;;;;;4.85;1.75;;;20.50;99.90;;;;;;5047273;28;20021;-73
2023/06/30 10:54:27;;;;;;;4.43;1.80;;;20.50;99.90;;;;;;5028841;28;20021;-72
2023/06/30 10:57:08;;;;;;;5.90;2.08;;;20.50;99.90;;;;;;5028920;28;20059;-71
2023/06/30 10:59:41;;;;;;;5.68;2.25;;;20.50;99.90;;;;;;5047096;28;20056;-70
2023/06/30 11:02:14;;;;;;;7.47;2.42;;;20.60;99.90;;;;;;5045357;28;20029;-70
2023/06/30 11:04:41;;;;;;;4.40;2.05;;;20.80;99.90;;;;;;5047059;28;20029;-73
2023/06/30 11:07:07;;;;;;;4.10;1.67;;;20.90;99.90;;;;;;5046935;28;20097;-75
2023/06/30 11:09:53;;;;;;;7.15;1.90;;;20.90;99.90;;;;;;5045037;28;20030;-73
2023/06/30 11:12:23;;;;;;;4.97;2.08;;;21.00;99.90;;;;;;5035760;28;20041;-75
2023/06/30 11:14:59;;;;;;;4.82;1.95;;;21.20;99.90;;;;;;5046327;28;20047;-72
2023/06/30 11:17:44;;;;;;;5.40;2.22;;;21.40;99.90;;;;;;5045015;28;20025;-74
2023/06/30 11:20:11;;;;;;;6.68;2.03;;;21.60;99.90;;;;;;5045253;28;20021;-71
2023/06/30 11:22:38;;;;;;;6.00;1.80;;;21.80;99.90;;;;;;5046415;28;20482;-73
2023/06/30 11:25:08;;;;;;;4.85;1.83;;;21.90;99.90;;;;;;5038203;28;20045;-73
2023/06/30 11:27:35;;;;;;;6.03;2.13;;;21.70;99.90;;;;;;5028792;28;20088;-72
2023/06/30 11:30:01;;;;;;;4.10;1.67;;;21.50;99.90;;;;;;5028076;28;20044;-72
2023/06/30 11:32:28;;;;;;;5.28;2.10;;;21.20;99.90;;;;;;5046608;28;20040;-73
2023/06/30 11:34:56;;;;;;;9.35;1.90;;;21.00;99.90;;;;;;5045716;28;20032;-73
2023/06/30 11:37:22;;;;;;;7.47;1.85;;;21.00;99.90;;;;;;5027938;28;20028;-74
2023/06/30 11:39:55;;;;;;;6.28;1.90;;;21.20;99.90;;;;;;5028015;28;20406;-72
2023/06/30 11:42:21;;;;;;;6.70;1.95;;;21.60;99.90;;;;;;5046023;28;20025;-73
2023/06/30 11:44:50;;;;;;;4.38;1.73;;;21.70;99.90;;;;;;5045536;28;20052;-73
2023/06/30 11:47:16;;;;;;;5.25;1.80;;;21.90;99.90;;;;;;5046058;28;20497;-74
2023/06/30 11:49:42;;;;;;;6.97;1.65;;;22.10;99.90;;;;;;5027422;28;20037;-74
2023/06/30 11:52:08;;;;;;;3.95;1.77;;;22.30;99.90;;;;;;5045547;28;20025;-73
2023/06/30 11:54:36;;;;;;;5.65;1.95;;;22.50;99.90;;;;;;5045805;28;20089;-76
2023/06/30 11:57:03;;;;;;;5.95;1.70;;;22.60;99.90;;;;;;5045662;28;20026;-75
2023/06/30 11:59:30;;;;;;;6.47;1.70;;;22.80;99.90;;;;;;5045606;28;20056;-71
2023/06/30 12:01:56;;;;;;;5.32;1.90;;;23.10;99.90;;;;;;5045817;28;20051;-74
2023/06/30 12:04:22;;;;;;;2.85;1.52;;;23.30;99.90;;;;;;5044153;28;20064;-73
2023/06/30 12:06:48;;;;;;;5.47;1.77;;;23.20;99.90;;;;;;5044046;28;20037;-69
2023/06/30 12:09:14;;;;;;;4.13;1.70;;;23.00;99.90;;;;;;5045717;28;20029;-74
2023/06/30 12:11:50;;;;;;;7.10;2.15;;;22.80;99.90;;;;;;5044112;28;20025;-73
2023/06/30 12:14:17;;;;;;;4.72;1.80;;;22.50;99.90;;;;;;5045466;28;20061;-73
2023/06/30 12:16:43;;;;;;;5.55;2.05;;;22.40;99.90;;;;;;5045709;28;20022;-73
2023/06/30 12:19:10;;;;;;;6.03;1.75;;;22.30;99.90;;;;;;5045104;28;20490;-72
2023/06/30 12:21:49;;;;;;;6.18;2.13;;;22.10;99.90;;;;;;5045522;28;20017;-72
2023/06/30 12:24:18;;;;;;;4.78;1.80;;;21.90;99.90;;;;;;5045372;28;20021;-73
2023/06/30 12:26:44;;;;;;;5.00;1.90;;;21.50;99.90;;;;;;5043734;28;20482;-72
2023/06/30 12:29:09;;;;;;;5.85;2.40;;;21.40;99.90;;;;;;5044227;28;20032;-72
2023/06/30 12:31:35;;;;;;;5.75;2.03;;;21.30;99.90;;;;;;5043937;28;20036;-72
2023/06/30 12:34:01;;;;;;;5.53;2.08;;;21.30;99.90;;;;;;5044656;28;20025;-72
2023/06/30 12:36:29;;;;;;;9.77;2.13;;;21.50;99.90;;;;;;5043814;28;20025;-72
2023/06/30 12:38:55;;;;;;;5.88;2.10;;;21.70;99.90;;;;;;5045154;28;20457;-72